Time;durP1;ratioP1;P1;durP2;ratioP2;P2;SDS_P1;SDS_P2;PMS_P1;PMS_P2;Temp;Humidity;BMP_temperature;BMP_pressure;BME280_temperature;BME280_humidity;BME280_pressure;Samples;Min_cycle;Max_cycle;Signal;HPM_P1;HPM_P2
2022/11/22 00:04:24;;;;;;;5.72;1.92;;;;;;;;;;5025739;28;20034;-59
2022/11/22 00:07:19;;;;;;;3.58;1.67;;;;;;;;;;4969945;28;20070;-59
2022/11/22 00:09:57;;;;;;;4.80;1.70;;;;;;;;;;5029422;28;20029;-59
2022/11/22 00:12:42;;;;;;;2.88;1.63;;;;;;;;;;5070909;28;20047;-59
2022/11/22 00:15:39;;;;;;;2.38;1.77;;;;;;;;;;5071101;28;20036;-59
2022/11/22 00:18:05;;;;;;;3.35;1.80;;;;;;;;;;5070858;28;20025;-59
2022/11/22 00:20:41;;;;;;;2.80;1.48;;;;;;;;;;5070863;28;20029;-59
2022/11/22 00:23:12;;;;;;;4.35;1.90;;;;;;;;;;5070293;28;20088;-59
2022/11/22 00:26:10;;;;;;;;;;;;;;;;;;;;;
2022/11/22 00:29:07;;;;;;;3.42;1.85;;;;;;;;;;5071623;28;20056;-59
2022/11/22 00:32:00;;;;;;;3.10;2.13;;;;;;;;;;5064772;28;20100;-59
2022/11/22 00:34:49;;;;;;;3.45;1.83;;;;;;;;;;5019578;28;20119;-59
2022/11/22 00:37:29;;;;;;;5.40;2.45;;;;;;;;;;4989383;28;20122;-59
2022/11/22 00:40:14;;;;;;;2.88;2.00;;;;;;;;;;5067693;28;20154;-59
2022/11/22 00:43:13;;;;;;;4.75;2.28;;;;;;;;;;5035213;28;20075;-59
2022/11/22 00:48:48;;;;;;;4.05;2.08;;;;;;;;;;5070626;28;20505;-59
2022/11/22 00:51:44;;;;;;;3.42;2.33;;;;;;;;;;5070151;28;20486;-59
2022/11/22 01:00:39;;;;;;;3.65;1.95;;;;;;;;;;5090203;28;20710;-59
2022/11/22 01:03:43;;;;;;;2.92;1.95;;;;;;;;;;5089293;28;20040;-59
2022/11/22 01:12:26;;;;;;;4.05;2.15;;;;;;;;;;5089680;28;20050;-59
2022/11/22 01:17:58;;;;;;;3.47;2.45;;;;;;;;;;5047587;28;20029;-59
2022/11/22 01:20:30;;;;;;;3.28;2.05;;;;;;;;;;5085303;28;20041;-59
2022/11/22 01:23:15;;;;;;;3.85;2.63;;;;;;;;;;5089327;28;20036;-59
2022/11/22 01:25:56;;;;;;;3.35;2.10;;;;;;;;;;5088870;28;20036;-59
2022/11/22 01:28:50;;;;;;;3.53;2.00;;;;;;;;;;5089479;28;20032;-59
2022/11/22 01:32:02;;;;;;;3.42;2.72;;;;;;;;;;5089614;28;20033;-59
2022/11/22 01:38:00;;;;;;;4.25;2.20;;;;;;;;;;4988938;28;20484;-59
2022/11/22 01:43:45;;;;;;;2.47;1.42;;;;;;;;;;4969245;28;20037;-59
2022/11/22 01:46:39;;;;;;;3.72;1.48;;;;;;;;;;4988574;28;20449;-59
2022/11/22 01:49:33;;;;;;;2.80;1.65;;;;;;;;;;4987154;28;20038;-59
2022/11/22 01:52:28;;;;;;;2.15;1.23;;;;;;;;;;5049501;28;20043;-59
2022/11/22 01:57:50;;;;;;;2.60;1.40;;;;;;;;;;5075582;28;20135;-59
2022/11/22 02:03:52;;;;;;;1.98;1.42;;;;;;;;;;5024211;28;20036;-59
2022/11/22 02:06:37;;;;;;;4.47;2.30;;;;;;;;;;5068642;28;20083;-59
2022/11/22 02:09:42;;;;;;;4.30;2.00;;;;;;;;;;5068811;28;20028;-59
2022/11/22 02:12:36;;;;;;;2.63;1.48;;;;;;;;;;5066092;28;20052;-59
2022/11/22 02:21:36;;;;;;;3.53;1.90;;;;;;;;;;4987164;28;20069;-59
2022/11/22 02:24:31;;;;;;;1.40;1.05;;;;;;;;;;4987629;28;20066;-59
2022/11/22 02:27:07;;;;;;;2.67;1.67;;;;;;;;;;4949104;29;20179;-59
2022/11/22 02:30:05;;;;;;;2.80;1.55;;;;;;;;;;4949801;29;20039;-59
2022/11/22 02:32:36;;;;;;;2.15;1.33;;;;;;;;;;4981363;28;20034;-59
2022/11/22 02:35:07;;;;;;;;;;;;;;;;;;4988042;28;20027;-59
2022/11/22 02:37:50;;;;;;;1.50;1.27;;;;;;;;;;4987515;28;19906;-59
2022/11/22 02:40:35;;;;;;;1.40;0.82;;;;;;;;;;4987707;28;20523;-59
2022/11/22 02:43:34;;;;;;;2.15;1.00;;;;;;;;;;4987801;28;20031;-59
2022/11/22 02:46:26;;;;;;;1.75;0.90;;;;;;;;;;4984337;28;20047;-59
2022/11/22 02:49:11;;;;;;;1.83;1.10;;;;;;;;;;4987628;28;20050;-59
2022/11/22 02:52:07;;;;;;;2.47;1.33;;;;;;;;;;5028983;28;20045;-59
2022/11/22 02:55:00;;;;;;;2.15;1.17;;;;;;;;;;5050949;28;20489;-59
2022/11/22 03:00:35;;;;;;;4.38;0.98;;;;;;;;;;5085470;28;20051;-59
2022/11/22 03:03:30;;;;;;;2.80;1.58;;;;;;;;;;5088683;28;20037;-59
2022/11/22 03:06:19;;;;;;;1.20;0.70;;;;;;;;;;5073750;28;20045;-59
2022/11/22 03:09:13;;;;;;;3.92;1.63;;;;;;;;;;5088736;28;20036;-59
2022/11/22 03:12:07;;;;;;;1.65;1.20;;;;;;;;;;5088054;28;20393;-59
2022/11/22 03:26:58;;;;;;;3.33;1.05;;;;;;;;;;5046642;28;20462;-59
2022/11/22 03:29:25;;;;;;;2.45;1.23;;;;;;;;;;5046566;28;20036;-60
2022/11/22 03:32:10;;;;;;;6.15;1.88;;;;;;;;;;5030174;28;20045;-59
2022/11/22 03:34:48;;;;;;;3.08;1.88;;;;;;;;;;5059085;28;20040;-59
2022/11/22 03:37:43;;;;;;;2.40;1.60;;;;;;;;;;5068939;28;20051;-59
2022/11/22 03:40:31;;;;;;;4.20;1.23;;;;;;;;;;5043130;28;20429;-59
2022/11/22 03:46:10;;;;;;;1.90;0.88;;;;;;;;;;5075335;28;20062;-59
2022/11/22 03:48:46;;;;;;;1.58;1.10;;;;;;;;;;5092282;28;20036;-59
2022/11/22 03:51:35;;;;;;;1.95;1.10;;;;;;;;;;5091456;28;20028;-59
2022/11/22 03:54:24;;;;;;;;;;;;;;;;;;;;;
2022/11/22 03:57:19;;;;;;;1.90;0.97;;;;;;;;;;5091712;28;20048;-59
2022/11/22 04:00:09;;;;;;;2.33;1.50;;;;;;;;;;5073144;28;20051;-59
2022/11/22 04:03:05;;;;;;;;;;;;;;;;;;;;;
2022/11/22 04:05:47;;;;;;;2.13;1.48;;;;;;;;;;5091539;28;20059;-59
2022/11/22 04:08:32;;;;;;;1.77;1.08;;;;;;;;;;5092023;28;20051;-59
2022/11/22 04:11:11;;;;;;;1.92;1.27;;;;;;;;;;5091408;28;20076;-59
2022/11/22 04:16:47;;;;;;;2.00;0.98;;;;;;;;;;5091363;28;20047;-59
2022/11/22 04:22:30;;;;;;;2.05;1.35;;;;;;;;;;5091028;28;20032;-59
2022/11/22 04:28:37;;;;;;;3.05;1.33;;;;;;;;;;5048149;28;20114;-59
2022/11/22 04:34:11;;;;;;;1.60;1.00;;;;;;;;;;5034603;28;20036;-59
2022/11/22 04:37:07;;;;;;;1.70;0.85;;;;;;;;;;5061009;28;20489;-59
2022/11/22 04:39:51;;;;;;;2.88;1.25;;;;;;;;;;5063888;28;20032;-59
2022/11/22 04:45:36;;;;;;;2.00;0.93;;;;;;;;;;5014607;28;20040;-59
2022/11/22 04:48:37;;;;;;;3.78;2.00;;;;;;;;;;5014559;28;20104;-59
2022/11/22 04:57:05;;;;;;;;;;;;;;;;;;;;;
2022/11/22 05:09:10;;;;;;;2.05;1.35;;;;;;;;;;4924886;29;20402;-59
2022/11/22 05:11:54;;;;;;;3.28;1.30;;;;;;;;;;4955772;29;20207;-59
2022/11/22 05:17:37;;;;;;;2.75;1.45;;;;;;;;;;4998644;28;20129;-59
2022/11/22 05:20:29;;;;;;;1.63;1.15;;;;;;;;;;4996938;28;20084;-59
2022/11/22 05:26:20;;;;;;;;;;;;;;;;;;;;;
2022/11/22 05:32:14;;;;;;;4.60;1.92;;;;;;;;;;4985994;28;20042;-60
2022/11/22 05:35:02;;;;;;;4.30;1.67;;;;;;;;;;5055999;28;20033;-60
2022/11/22 05:40:48;;;;;;;2.72;1.40;;;;;;;;;;5069920;28;20040;-60
2022/11/22 05:43:33;;;;;;;3.70;1.38;;;;;;;;;;5062251;28;20105;-59
2022/11/22 05:46:27;;;;;;;6.35;1.58;;;;;;;;;;5062635;28;20083;-58
2022/11/22 05:49:23;;;;;;;5.70;1.77;;;;;;;;;;5069142;28;20088;-58
2022/11/22 05:55:18;;;;;;;2.58;1.33;;;;;;;;;;5069363;28;20051;-59
2022/11/22 05:57:53;;;;;;;1.70;0.90;;;;;;;;;;5069419;28;20029;-59
2022/11/22 06:00:25;;;;;;;2.53;1.42;;;;;;;;;;5080435;28;20052;-59
2022/11/22 06:03:10;;;;;;;2.38;1.58;;;;;;;;;;5087174;28;20093;-59
2022/11/22 06:05:52;;;;;;;2.15;1.30;;;;;;;;;;5088472;28;20044;-59
2022/11/22 06:08:53;;;;;;;2.42;1.35;;;;;;;;;;5070364;28;20025;-59
2022/11/22 06:17:36;;;;;;;3.15;1.33;;;;;;;;;;5088171;28;20040;-59
2022/11/22 06:20:03;;;;;;;1.60;1.02;;;;;;;;;;5087626;28;20025;-59
2022/11/22 06:25:58;;;;;;;2.45;1.25;;;;;;;;;;5087922;28;20434;-59
2022/11/22 06:28:54;;;;;;;3.90;1.48;;;;;;;;;;5046326;28;20053;-59
2022/11/22 06:34:58;;;;;;;5.03;1.77;;;;;;;;;;5026806;28;20096;-59
2022/11/22 06:37:59;;;;;;;5.68;1.95;;;;;;;;;;5040999;28;20042;-59
2022/11/22 06:41:02;;;;;;;2.35;1.38;;;;;;;;;;5011670;28;20412;-59
2022/11/22 06:44:05;;;;;;;3.10;1.02;;;;;;;;;;4957419;28;20405;-59
2022/11/22 06:46:51;;;;;;;;;;;;;;;;;;;;;
2022/11/22 06:49:52;;;;;;;3.22;1.50;;;;;;;;;;4954209;29;20380;-59
2022/11/22 06:52:54;;;;;;;2.17;1.45;;;;;;;;;;4954772;29;20110;-59
2022/11/22 06:55:39;;;;;;;2.80;1.50;;;;;;;;;;4958100;28;20496;-59
2022/11/22 06:58:18;;;;;;;3.25;1.20;;;;;;;;;;4973232;28;20027;-59
2022/11/22 07:01:07;;;;;;;4.60;1.60;;;;;;;;;;4994997;28;20104;-59
2022/11/22 07:03:56;;;;;;;;;;;;;;;;;;;;;
2022/11/22 07:06:34;;;;;;;1.40;1.10;;;;;;;;;;5007236;28;20042;-59
2022/11/22 07:09:29;;;;;;;3.70;1.55;;;;;;;;;;5012531;28;20108;-59
2022/11/22 07:11:58;;;;;;;6.97;2.40;;;;;;;;;;4995894;28;20527;-59
2022/11/22 07:20:41;;;;;;;4.13;1.60;;;;;;;;;;4979124;28;20085;-59
2022/11/22 07:23:26;;;;;;;3.72;1.95;;;;;;;;;;4997086;28;20044;-59
2022/11/22 07:29:21;;;;;;;3.38;1.85;;;;;;;;;;5051593;28;20082;-59
2022/11/22 07:35:03;;;;;;;3.90;2.60;;;;;;;;;;5004558;28;20436;-59
2022/11/22 07:40:36;;;;;;;4.93;1.63;;;;;;;;;;5011613;28;20068;-59
2022/11/22 07:43:54;;;;;;;;;;;;;;;;;;;;;
2022/11/22 07:52:47;;;;;;;4.97;1.63;;;;;;;;;;4999817;28;20034;-59
2022/11/22 07:58:04;;;;;;;4.85;1.45;;;;;;;;;;5032323;28;20072;-59
2022/11/22 08:03:38;;;;;;;8.20;1.98;;;;;;;;;;5037475;28;20036;-58
2022/11/22 08:09:20;;;;;;;5.53;1.67;;;;;;;;;;4999861;28;20041;-58
2022/11/22 08:12:16;;;;;;;2.55;1.38;;;;;;;;;;5071538;28;20028;-58
2022/11/22 08:15:00;;;;;;;1.75;1.02;;;;;;;;;;5070488;28;20029;-59
2022/11/22 08:18:00;;;;;;;4.70;2.40;;;;;;;;;;5070601;28;20071;-58
2022/11/22 08:20:52;;;;;;;2.35;1.02;;;;;;;;;;5071075;28;20031;-59
2022/11/22 08:26:55;;;;;;;6.72;1.40;;;;;;;;;;5028370;28;20083;-58
2022/11/22 08:29:34;;;;;;;2.58;1.42;;;;;;;;;;5028510;28;20049;-59
2022/11/22 08:35:34;;;;;;;3.00;1.38;;;;;;;;;;5011619;28;20133;-59
2022/11/22 08:41:04;;;;;;;2.20;1.92;;;;;;;;;;5024418;28;20037;-60
2022/11/22 08:43:40;;;;;;;2.85;1.38;;;;;;;;;;5054238;28;20497;-60
2022/11/22 08:46:24;;;;;;;5.15;1.40;;;;;;;;;;5070329;28;20033;-60
2022/11/22 08:51:45;;;;;;;3.13;1.40;;;;;;;;;;5070819;28;20040;-60
2022/11/22 08:54:51;;;;;;;3.35;1.13;;;;;;;;;;5070495;28;20033;-60
2022/11/22 08:57:48;;;;;;;2.15;0.93;;;;;;;;;;4970026;29;20051;-60
2022/11/22 09:00:24;;;;;;;;;;;;;;;;;;;;;
2022/11/22 09:08:32;;;;;;;3.92;1.50;;;;;;;;;;5068491;28;20071;-60
2022/11/22 09:11:20;;;;;;;6.70;2.70;;;;;;;;;;5067147;28;20444;-60
2022/11/22 09:13:56;;;;;;;5.90;1.95;;;;;;;;;;5068752;28;20033;-60
2022/11/22 09:17:02;;;;;;;6.30;2.90;;;;;;;;;;5054252;28;20514;-60
2022/11/22 09:19:40;;;;;;;4.05;1.13;;;;;;;;;;5036199;28;20535;-60
2022/11/22 09:22:12;;;;;;;3.42;0.98;;;;;;;;;;5036825;28;20056;-60
2022/11/22 09:25:08;;;;;;;2.60;1.13;;;;;;;;;;5036321;28;20040;-58
2022/11/22 09:27:47;;;;;;;4.95;1.33;;;;;;;;;;5025513;28;20530;-58
2022/11/22 09:30:45;;;;;;;;;;;;;;;;;;;;;
2022/11/22 09:33:38;;;;;;;3.67;1.63;;;;;;;;;;5069523;28;20374;-57
2022/11/22 09:36:15;;;;;;;2.22;1.33;;;;;;;;;;5071279;28;20032;-57
2022/11/22 09:38:48;;;;;;;2.72;1.00;;;;;;;;;;5075968;28;20108;-58
2022/11/22 09:41:31;;;;;;;;;;;;;;;;;;;;;
2022/11/22 09:44:18;;;;;;;10.45;2.30;;;;;;;;;;5075637;28;20465;-58
2022/11/22 09:47:38;;;;;;;5.43;1.42;;;;;;;;;;5032774;28;20049;-58
2022/11/22 09:50:31;;;;;;;8.95;1.67;;;;;;;;;;4955120;29;20050;-58
2022/11/22 09:53:19;;;;;;;3.38;1.30;;;;;;;;;;4955636;29;20038;-58
2022/11/22 09:55:59;;;;;;;5.35;1.50;;;;;;;;;;5026073;28;20052;-58
2022/11/22 09:58:42;;;;;;;5.20;1.92;;;;;;;;;;5033732;28;20049;-58
2022/11/22 10:04:49;;;;;;;;;;;;;;;;;;;;;
2022/11/22 10:07:42;;;;;;;5.47;1.45;;;;;;;;;;5033151;28;20058;-58
2022/11/22 10:13:49;;;;;;;10.63;1.67;;;;;;;;;;5023863;28;20044;-58
2022/11/22 10:16:48;;;;;;;3.05;1.00;;;;;;;;;;4973540;28;20163;-58
2022/11/22 10:19:40;;;;;;;4.93;1.55;;;;;;;;;;4919310;29;20090;-58
2022/11/22 10:22:21;;;;;;;13.90;1.27;;;;;;;;;;4967581;28;20433;-59
2022/11/22 10:24:56;;;;;;;1.48;1.10;;;;;;;;;;4974361;28;20035;-58
2022/11/22 10:27:47;;;;;;;0.98;0.73;;;;;;;;;;4974165;28;20047;-58
2022/11/22 10:30:28;;;;;;;9.82;1.63;;;;;;;;;;4972705;28;20035;-58
2022/11/22 10:36:57;;;;;;;8.77;2.92;;;;;;;;;;4966201;28;20039;-59
2022/11/22 10:39:45;;;;;;;4.47;1.23;;;;;;;;;;4997162;28;20128;-58
2022/11/22 10:42:33;;;;;;;3.83;1.38;;;;;;;;;;5045728;28;20108;-59
2022/11/22 10:45:29;;;;;;;3.20;1.13;;;;;;;;;;5045786;28;20537;-59
2022/11/22 10:48:23;;;;;;;2.85;1.23;;;;;;;;;;5046612;28;20042;-59
2022/11/22 10:51:08;;;;;;;4.97;1.33;;;;;;;;;;5045761;28;20021;-59
2022/11/22 10:54:07;;;;;;;5.15;1.23;;;;;;;;;;5046135;28;20040;-58
2022/11/22 10:59:46;;;;;;;9.82;1.20;;;;;;;;;;5024972;28;20037;-58
2022/11/22 11:12:02;;;;;;;6.20;1.42;;;;;;;;;;5084323;28;20052;-58
2022/11/22 11:14:40;;;;;;;2.60;1.08;;;;;;;;;;5071840;28;20040;-59
2022/11/22 11:17:07;;;;;;;7.18;1.55;;;;;;;;;;5088131;28;20366;-59
2022/11/22 11:19:53;;;;;;;1.92;1.50;;;;;;;;;;5088055;28;20017;-59
2022/11/22 11:22:37;;;;;;;4.85;3.15;;;;;;;;;;5069349;28;20029;-58
2022/11/22 11:25:49;;;;;;;3.30;0.88;;;;;;;;;;5088528;28;20029;-58
2022/11/22 11:34:43;;;;;;;2.03;1.25;;;;;;;;;;5006374;28;20038;-58
2022/11/22 11:37:34;;;;;;;4.35;0.85;;;;;;;;;;4982126;28;20427;-59
2022/11/22 11:40:00;;;;;;;8.82;1.17;;;;;;;;;;4958288;28;20066;-58
2022/11/22 11:42:52;;;;;;;3.33;0.75;;;;;;;;;;5087888;28;20025;-59
2022/11/22 11:45:43;;;;;;;1.80;0.55;;;;;;;;;;5087150;28;20027;-58
2022/11/22 11:48:39;;;;;;;2.47;1.15;;;;;;;;;;5087703;28;20366;-58
2022/11/22 11:51:44;;;;;;;3.13;0.63;;;;;;;;;;5069292;28;20474;-59
2022/11/22 11:54:44;;;;;;;4.18;0.93;;;;;;;;;;5087755;28;20116;-58
2022/11/22 11:57:16;;;;;;;;;;;;;;;;;;5087368;28;20435;-58
2022/11/22 11:59:59;;;;;;;2.38;0.73;;;;;;;;;;5086942;28;19911;-59
2022/11/22 12:02:55;;;;;;;;;;;;;;;;;;;;;
2022/11/22 12:05:40;;;;;;;7.32;1.67;;;;;;;;;;5086963;28;20051;-58
2022/11/22 12:18:16;;;;;;;1.23;0.73;;;;;;;;;;5027305;28;20039;-58
2022/11/22 12:21:03;;;;;;;3.20;1.42;;;;;;;;;;5076082;28;20023;-58
2022/11/22 12:27:16;;;;;;;;;;;;;;;;;;;;;
2022/11/22 12:29:55;;;;;;;1.38;0.60;;;;;;;;;;5076445;28;20119;-58
2022/11/22 12:32:36;;;;;;;1.02;0.40;;;;;;;;;;5075817;28;20036;-58
2022/11/22 12:35:10;;;;;;;;;;;;;;;;;;5076617;28;20021;-58
2022/11/22 12:38:13;;;;;;;1.60;0.73;;;;;;;;;;5076692;28;20003;-58
2022/11/22 12:41:00;;;;;;;1.38;0.28;;;;;;;;;;5076695;28;20035;-59
2022/11/22 12:43:55;;;;;;;2.90;0.93;;;;;;;;;;5058279;28;20039;-59
2022/11/22 12:46:40;;;;;;;4.22;1.02;;;;;;;;;;5076897;28;20029;-59
2022/11/22 12:49:22;;;;;;;;;;;;;;;;;;;;;
2022/11/22 12:52:07;;;;;;;1.40;0.88;;;;;;;;;;5075839;28;20039;-59
2022/11/22 12:55:01;;;;;;;4.30;0.88;;;;;;;;;;5056974;28;20037;-59
2022/11/22 12:57:55;;;;;;;5.88;0.88;;;;;;;;;;5075411;28;20500;-58
2022/11/22 13:00:50;;;;;;;4.03;1.15;;;;;;;;;;5076547;28;20024;-59
2022/11/22 13:03:47;;;;;;;2.22;0.60;;;;;;;;;;4528904;28;15291995;-59
2022/11/22 13:06:34;;;;;;;2.25;0.98;;;;;;;;;;5043153;28;20044;-59
2022/11/22 13:12:33;;;;;;;7.50;0.70;;;;;;;;;;4988468;28;20065;-59
2022/11/22 13:18:38;;;;;;;7.17;0.87;;;;;;;;;;4957501;29;20046;-59
2022/11/22 13:21:38;;;;;;;0.45;0.30;;;;;;;;;;5069015;28;20024;-59
2022/11/22 13:27:47;;;;;;;;;;;;;;;;;;;;;
2022/11/22 13:30:24;;;;;;;1.50;0.55;;;;;;;;;;4988632;28;20058;-59
2022/11/22 13:33:25;;;;;;;3.50;0.82;;;;;;;;;;4988685;28;20492;-59
2022/11/22 13:36:13;;;;;;;1.02;0.40;;;;;;;;;;4952641;28;20046;-59
2022/11/22 13:39:18;;;;;;;1.45;0.40;;;;;;;;;;5054197;28;20032;-59
2022/11/22 13:42:17;;;;;;;4.80;0.80;;;;;;;;;;4987321;28;20040;-59
2022/11/22 13:45:23;;;;;;;2.42;0.98;;;;;;;;;;5068810;28;20029;-59
2022/11/22 13:48:07;;;;;;;0.75;0.20;;;;;;;;;;5067335;28;20083;-59
2022/11/22 13:50:56;;;;;;;0.43;0.20;;;;;;;;;;5051648;28;20033;-60
2022/11/22 13:53:58;;;;;;;1.42;0.50;;;;;;;;;;4968297;29;20039;-59
2022/11/22 13:56:51;;;;;;;0.60;0.20;;;;;;;;;;4930024;29;20067;-60
2022/11/22 13:59:51;;;;;;;0.82;0.20;;;;;;;;;;4931228;29;20449;-60
2022/11/22 14:02:30;;;;;;;0.75;0.43;;;;;;;;;;4932997;29;20051;-60
2022/11/22 14:08:50;;;;;;;1.25;0.45;;;;;;;;;;5027497;28;20061;-60
2022/11/22 14:11:45;;;;;;;0.73;0.40;;;;;;;;;;4995468;28;20097;-60
2022/11/22 14:14:28;;;;;;;4.78;0.63;;;;;;;;;;5032168;28;20659;-58
2022/11/22 14:17:13;;;;;;;4.10;0.57;;;;;;;;;;5068621;28;20455;-58
2022/11/22 14:20:00;;;;;;;1.63;0.45;;;;;;;;;;5068354;28;20562;-58
2022/11/22 14:22:48;;;;;;;4.47;1.10;;;;;;;;;;5068319;28;20021;-58
2022/11/22 14:25:33;;;;;;;3.60;0.32;;;;;;;;;;5068070;28;20025;-56
2022/11/22 14:28:30;;;;;;;0.85;0.45;;;;;;;;;;5068401;28;20048;-56
2022/11/22 14:34:39;;;;;;;;;;;;;;;;;;;;;
2022/11/22 14:43:31;;;;;;;2.22;0.52;;;;;;;;;;5024555;28;20084;-58
2022/11/22 14:49:25;;;;;;;0.70;0.20;;;;;;;;;;4987212;28;20042;-56
2022/11/22 14:52:20;;;;;;;1.38;0.40;;;;;;;;;;4970994;28;20034;-57
2022/11/22 14:55:07;;;;;;;2.80;0.65;;;;;;;;;;5027169;28;20056;-56
2022/11/22 14:57:41;;;;;;;2.75;0.50;;;;;;;;;;5067645;28;20055;-56
2022/11/22 15:03:48;;;;;;;0.10;0.10;;;;;;;;;;5036631;28;20053;-56
2022/11/22 15:09:48;;;;;;;0.90;0.30;;;;;;;;;;5045783;28;20048;-58
2022/11/22 15:21:41;;;;;;;1.05;0.52;;;;;;;;;;5085601;28;20066;-56
2022/11/22 15:24:43;;;;;;;2.50;0.73;;;;;;;;;;5087923;28;20029;-57
2022/11/22 15:27:37;;;;;;;2.40;0.85;;;;;;;;;;5055094;28;20075;-56
2022/11/22 15:30:41;;;;;;;;;;;;;;;;;;;;;
2022/11/22 15:36:49;;;;;;;2.10;1.48;;;;;;;;;;5067555;28;20028;-56
2022/11/22 15:39:32;;;;;;;1.85;1.02;;;;;;;;;;5069960;28;20066;-57
2022/11/22 15:42:18;;;;;;;0.88;0.50;;;;;;;;;;5070413;28;20031;-55
2022/11/22 15:44:57;;;;;;;0.70;0.32;;;;;;;;;;5072347;28;20078;-57
2022/11/22 15:47:31;;;;;;;2.92;1.00;;;;;;;;;;5074336;28;20029;-57
2022/11/22 15:50:19;;;;;;;1.75;0.60;;;;;;;;;;5084702;28;20132;-57
2022/11/22 15:52:52;;;;;;;0.38;0.22;;;;;;;;;;5069678;28;20434;-55
2022/11/22 15:55:33;;;;;;;0.80;0.43;;;;;;;;;;5047778;28;20129;-57
2022/11/22 15:58:14;;;;;;;;;;;;;;;;;;5049808;28;20045;-56
2022/11/22 16:01:00;;;;;;;;;;;;;;;;;;;;;
2022/11/22 16:03:55;;;;;;;0.88;0.47;;;;;;;;;;5048082;28;19952;-56
2022/11/22 16:06:31;;;;;;;5.88;1.05;;;;;;;;;;5045938;28;20056;-57
2022/11/22 16:09:58;;;;;;;1.17;0.45;;;;;;;;;;5048335;28;20037;-56
2022/11/22 16:12:34;;;;;;;;;;;;;;;;;;;;;
2022/11/22 16:15:25;;;;;;;2.20;0.68;;;;;;;;;;5047956;28;20499;-57
2022/11/22 16:21:23;;;;;;;1.25;0.65;;;;;;;;;;5048063;28;19912;-58
2022/11/22 16:24:19;;;;;;;2.10;0.75;;;;;;;;;;4943529;28;20043;-59
2022/11/22 16:27:20;;;;;;;0.93;0.47;;;;;;;;;;5068411;28;20052;-57
2022/11/22 16:30:07;;;;;;;0.40;0.30;;;;;;;;;;5090564;28;20042;-57
2022/11/22 16:32:59;;;;;;;2.70;0.63;;;;;;;;;;5059078;28;20078;-58
2022/11/22 16:35:48;;;;;;;1.30;0.68;;;;;;;;;;5024760;28;20063;-56
2022/11/22 16:41:33;;;;;;;1.38;0.80;;;;;;;;;;5080754;28;20100;-56
2022/11/22 16:44:32;;;;;;;;;;;;;;;;;;;;;
2022/11/22 16:47:17;;;;;;;2.40;0.50;;;;;;;;;;5076649;28;20390;-56
2022/11/22 16:49:44;;;;;;;1.42;0.82;;;;;;;;;;5058118;28;20497;-57
2022/11/22 16:52:22;;;;;;;4.72;1.90;;;;;;;;;;5076089;28;20036;-57
2022/11/22 16:57:56;;;;;;;1.45;0.80;;;;;;;;;;5076104;28;20035;-54
2022/11/22 17:03:36;;;;;;;3.17;0.88;;;;;;;;;;5043997;28;20367;-57
2022/11/22 17:06:35;;;;;;;4.75;0.70;;;;;;;;;;5058209;28;20382;-58
2022/11/22 17:09:39;;;;;;;2.05;1.40;;;;;;;;;;5076277;28;20024;-56
2022/11/22 17:12:25;;;;;;;1.10;0.60;;;;;;;;;;5074135;28;20358;-56
2022/11/22 17:15:23;;;;;;;2.95;0.75;;;;;;;;;;5075919;28;20051;-58
2022/11/22 17:21:38;;;;;;;;;;;;;;;;;;;;;
2022/11/22 17:27:41;;;;;;;1.70;0.57;;;;;;;;;;5033124;28;20609;-58
2022/11/22 17:33:56;;;;;;;1.17;0.55;;;;;;;;;;5022870;28;20025;-54
2022/11/22 17:40:32;;;;;;;1.55;0.63;;;;;;;;;;5020431;28;20033;-55
2022/11/22 17:43:02;;;;;;;;;;;;;;;;;;;;;
2022/11/22 17:45:41;;;;;;;4.75;1.30;;;;;;;;;;5034303;28;20113;-57
2022/11/22 17:48:17;;;;;;;1.63;0.70;;;;;;;;;;5023093;28;20498;-57
2022/11/22 17:51:06;;;;;;;2.05;1.65;;;;;;;;;;5055059;28;20089;-54
2022/11/22 17:53:38;;;;;;;2.92;1.70;;;;;;;;;;5075792;28;20476;-57
2022/11/22 17:56:15;;;;;;;1.98;1.00;;;;;;;;;;5075529;28;20103;-54
2022/11/22 17:59:04;;;;;;;2.13;1.25;;;;;;;;;;5076306;28;20103;-57
2022/11/22 18:01:52;;;;;;;7.85;1.85;;;;;;;;;;5076066;28;20415;-57
2022/11/22 18:05:07;;;;;;;4.57;1.17;;;;;;;;;;5035393;28;20430;-56
2022/11/22 18:08:13;;;;;;;3.60;1.65;;;;;;;;;;4964099;28;20541;-56
2022/11/22 18:11:02;;;;;;;1.40;0.65;;;;;;;;;;4938499;29;20094;-57
2022/11/22 18:13:45;;;;;;;1.33;0.52;;;;;;;;;;4959123;28;20497;-55
2022/11/22 18:16:36;;;;;;;2.20;0.80;;;;;;;;;;5056038;28;20029;-57
2022/11/22 18:22:20;;;;;;;1.98;0.70;;;;;;;;;;5051600;28;20036;-56
2022/11/22 18:25:06;;;;;;;2.08;0.60;;;;;;;;;;5054726;28;20079;-52
2022/11/22 18:28:12;;;;;;;1.20;0.88;;;;;;;;;;5054646;28;20040;-57
2022/11/22 18:30:40;;;;;;;2.25;0.70;;;;;;;;;;5055651;28;20048;-57
2022/11/22 18:42:31;;;;;;;2.58;1.23;;;;;;;;;;5055134;28;20071;-56
2022/11/22 18:45:15;;;;;;;2.30;1.23;;;;;;;;;;5002015;28;20471;-54
2022/11/22 18:48:23;;;;;;;;;;;;;;;;;;;;;
2022/11/22 18:51:19;;;;;;;2.90;1.33;;;;;;;;;;5054961;28;20211;-54
2022/11/22 18:54:20;;;;;;;;;;;;;;;;;;;;;
2022/11/22 18:57:10;;;;;;;2.35;0.98;;;;;;;;;;5046856;28;20128;-54
2022/11/22 18:59:43;;;;;;;1.65;0.70;;;;;;;;;;5055518;28;20075;-57
2022/11/22 19:02:31;;;;;;;5.10;1.13;;;;;;;;;;5060275;28;20438;-52
2022/11/22 19:05:14;;;;;;;2.13;1.30;;;;;;;;;;5046396;28;20489;-57
2022/11/22 19:07:45;;;;;;;6.32;1.85;;;;;;;;;;5074257;28;20086;-56
2022/11/22 19:10:21;;;;;;;3.90;1.83;;;;;;;;;;5056194;28;20454;-56
2022/11/22 19:12:58;;;;;;;4.13;2.15;;;;;;;;;;5031251;28;20577;-54
2022/11/22 19:15:36;;;;;;;3.40;1.48;;;;;;;;;;4986107;28;20111;-54
2022/11/22 19:18:24;;;;;;;3.45;1.35;;;;;;;;;;5032262;28;20048;-52
2022/11/22 19:26:56;;;;;;;;;;;;;;;;;;5012153;28;20041;-57
2022/11/22 19:29:43;;;;;;;1.30;0.70;;;;;;;;;;5012598;28;20362;-56
2022/11/22 19:32:09;;;;;;;1.33;0.90;;;;;;;;;;5012285;28;20404;-56
2022/11/22 19:34:50;;;;;;;3.10;1.50;;;;;;;;;;5011498;28;20052;-55
2022/11/22 19:37:16;;;;;;;2.38;0.98;;;;;;;;;;4995537;28;20400;-57
2022/11/22 19:39:51;;;;;;;1.80;0.68;;;;;;;;;;4992949;28;20033;-57
2022/11/22 19:42:41;;;;;;;4.57;1.35;;;;;;;;;;5012014;28;20391;-56
2022/11/22 19:45:08;;;;;;;2.70;1.50;;;;;;;;;;5030962;28;20041;-58
2022/11/22 19:48:35;;;;;;;;;;;;;;;;;;;;;
2022/11/22 19:51:02;;;;;;;1.15;0.60;;;;;;;;;;5025184;28;20092;-58
2022/11/22 19:53:44;;;;;;;;;;;;;;;;;;;;;
2022/11/22 19:56:25;;;;;;;1.90;0.75;;;;;;;;;;5031744;28;20390;-58
2022/11/22 20:02:06;;;;;;;2.80;0.88;;;;;;;;;;5042523;28;20066;-58
2022/11/22 20:08:22;;;;;;;1.52;0.70;;;;;;;;;;5053793;28;20110;-56
2022/11/22 20:11:07;;;;;;;4.15;1.65;;;;;;;;;;5057504;28;20025;-57
2022/11/22 20:13:58;;;;;;;6.15;1.38;;;;;;;;;;5066300;28;20031;-56
2022/11/22 20:16:49;;;;;;;2.30;1.00;;;;;;;;;;5066633;28;20058;-56
2022/11/22 20:19:25;;;;;;;1.83;1.50;;;;;;;;;;5005761;28;20118;-56
2022/11/22 20:22:07;;;;;;;4.72;1.73;;;;;;;;;;5005941;28;20053;-58
2022/11/22 20:24:46;;;;;;;;;;;;;;;;;;;;;
2022/11/22 20:30:15;;;;;;;8.40;1.15;;;;;;;;;;5006628;28;20048;-58
2022/11/22 20:38:20;;;;;;;7.10;1.63;;;;;;;;;;5008143;28;20037;-57
2022/11/22 20:47:16;;;;;;;5.75;1.42;;;;;;;;;;4948373;29;20466;-55
2022/11/22 20:55:32;;;;;;;2.67;0.95;;;;;;;;;;5039019;28;20060;-56
2022/11/22 21:04:17;;;;;;;5.35;2.70;;;;;;;;;;4989241;28;20031;-58
2022/11/22 21:07:06;;;;;;;4.22;2.30;;;;;;;;;;5006820;28;20141;-54
2022/11/22 21:09:33;;;;;;;6.97;2.40;;;;;;;;;;5077448;28;20104;-57
2022/11/22 21:12:29;;;;;;;6.25;2.28;;;;;;;;;;5061478;28;20037;-55
2022/11/22 21:15:29;;;;;;;3.65;2.40;;;;;;;;;;5076302;28;20024;-57
2022/11/22 21:18:18;;;;;;;4.72;1.50;;;;;;;;;;5076881;28;20024;-56
2022/11/22 21:27:21;;;;;;;5.30;1.80;;;;;;;;;;5075883;28;20544;-55
2022/11/22 21:29:52;;;;;;;2.28;1.27;;;;;;;;;;5057904;28;20028;-58
2022/11/22 21:32:40;;;;;;;3.97;2.05;;;;;;;;;;5057709;28;20036;-57
2022/11/22 21:35:23;;;;;;;6.35;1.75;;;;;;;;;;5076152;28;20404;-56
2022/11/22 21:38:21;;;;;;;3.35;1.58;;;;;;;;;;5073253;28;20044;-58
2022/11/22 21:43:56;;;;;;;3.83;1.48;;;;;;;;;;5069816;28;20024;-58
2022/11/22 21:46:42;;;;;;;3.28;1.10;;;;;;;;;;5075938;28;20039;-58
2022/11/22 21:49:48;;;;;;;5.70;1.75;;;;;;;;;;5042494;28;20550;-58
2022/11/22 21:52:50;;;;;;;4.75;1.45;;;;;;;;;;4974835;28;20224;-57
2022/11/22 21:58:33;;;;;;;4.25;2.55;;;;;;;;;;4970199;28;20042;-58
2022/11/22 22:04:32;;;;;;;1.33;0.90;;;;;;;;;;4981664;28;20046;-58
2022/11/22 22:07:03;;;;;;;2.05;1.15;;;;;;;;;;4986939;28;20070;-52
2022/11/22 22:09:47;;;;;;;3.15;1.15;;;;;;;;;;5054648;28;20067;-58
2022/11/22 22:15:23;;;;;;;4.22;1.10;;;;;;;;;;5089203;28;20040;-55
2022/11/22 22:21:20;;;;;;;4.85;1.50;;;;;;;;;;5065906;28;20033;-58
2022/11/22 22:27:02;;;;;;;;;;;;;;;;;;;;;
2022/11/22 22:29:38;;;;;;;3.78;1.20;;;;;;;;;;5088722;28;20478;-56
2022/11/22 22:32:34;;;;;;;4.32;1.73;;;;;;;;;;5089338;28;20016;-57
2022/11/22 22:37:51;;;;;;;2.05;1.33;;;;;;;;;;5085868;28;20062;-55
2022/11/22 22:40:53;;;;;;;1.85;1.20;;;;;;;;;;5088447;28;20028;-55
2022/11/22 22:46:23;;;;;;;4.40;1.90;;;;;;;;;;5088907;28;20170;-56
2022/11/22 22:49:06;;;;;;;;;;;;;;;;;;;;;
2022/11/22 22:51:44;;;;;;;4.20;2.03;;;;;;;;;;5088389;28;20043;-56
2022/11/22 22:54:33;;;;;;;6.28;0.73;;;;;;;;;;5088667;28;20104;-54
2022/11/22 22:57:12;;;;;;;6.50;1.55;;;;;;;;;;5026644;28;20095;-55
2022/11/22 23:03:39;;;;;;;;;;;;;;;;;;;;;
2022/11/22 23:07:02;;;;;;;;;;;;;;;;;;;;;
2022/11/22 23:12:22;;;;;;;5.13;2.55;;;;;;;;;;4968199;29;20175;-56
2022/11/22 23:14:56;;;;;;;3.70;1.33;;;;;;;;;;5027465;28;20052;-57
2022/11/22 23:18:04;;;;;;;2.40;1.58;;;;;;;;;;5010898;28;20038;-55
2022/11/22 23:20:59;;;;;;;2.78;1.98;;;;;;;;;;4975732;28;20398;-55